Stuckey, South Carolina
Current Conditions -  °F | °C
As of 8:55 AM on Friday 31 Oct 2014 (Local Time) from KHYW Reporting Station
Haze Haze  
Wind Chill: 50°   Ceiling: Unl
Heat Index: 50°   Visibility: 5mi
Dew Point: 50°   Wind: 3mph
Humidity: 100%   Direction: 20°NNE
Pressure: 29.93"   Gusts: NA
Location:  33.7309°N, 79.4385°W
Report Text: KHYW 311255Z AUTO 02003KT 5SM BR CLR 10/10 A2993 RMK AO2 LTG DSNT S
Loading
Personal Weather Stations






























Interactive Weather Map
Tropical Storm Tracking
New forecast layout! Learn more

10-Day Weather Forecast

Advertisements
Track Severe Weather on mobile